createdAt,value
2019-03-27T00:00:44.303Z,47.64
2019-03-27T00:01:43.290Z,48.50
2019-03-27T00:02:43.345Z,54.54
2019-03-27T00:03:43.280Z,46.98
2019-03-27T00:04:43.284Z,46.53
2019-03-27T00:05:43.282Z,46.86
2019-03-27T00:06:43.257Z,45.24
2019-03-27T00:07:43.281Z,45.77
2019-03-27T00:08:43.263Z,47.03
2019-03-27T00:09:43.248Z,48.06
2019-03-27T00:10:43.247Z,47.99
2019-03-27T00:11:43.229Z,47.80
2019-03-27T00:12:43.225Z,45.99
2019-03-27T00:13:43.215Z,46.92
2019-03-27T00:14:43.196Z,47.51
2019-03-27T00:15:43.205Z,46.97
2019-03-27T00:16:43.196Z,47.65
2019-03-27T00:17:43.206Z,46.75
2019-03-27T00:18:43.174Z,47.42
2019-03-27T00:19:43.195Z,47.15
2019-03-27T00:20:43.184Z,53.07
2019-03-27T00:21:43.195Z,47.34
2019-03-27T00:22:43.187Z,47.53
2019-03-27T00:23:43.182Z,45.83
2019-03-27T00:24:43.175Z,44.97
2019-03-27T00:25:43.164Z,44.15
2019-03-27T00:26:43.150Z,47.00
2019-03-27T00:27:43.152Z,45.48
2019-03-27T00:28:43.161Z,44.72
2019-03-27T00:29:43.135Z,45.35
2019-03-27T00:30:43.119Z,46.74
2019-03-27T00:31:43.113Z,47.03
2019-03-27T00:32:43.128Z,46.60
2019-03-27T00:33:43.102Z,46.26
2019-03-27T00:34:43.113Z,46.82
2019-03-27T00:35:43.102Z,45.47
2019-03-27T00:36:43.103Z,45.87
2019-03-27T00:37:43.106Z,50.20
2019-03-27T00:38:43.075Z,46.81
2019-03-27T00:39:43.078Z,45.67
2019-03-27T00:40:43.066Z,45.60
2019-03-27T00:41:43.054Z,47.58
2019-03-27T00:42:43.063Z,45.20
2019-03-27T00:43:43.064Z,44.21
2019-03-27T00:44:43.056Z,43.81
2019-03-27T00:45:43.045Z,43.65
2019-03-27T00:46:43.028Z,44.01
2019-03-27T00:47:43.047Z,44.60
2019-03-27T00:48:43.027Z,43.35
2019-03-27T00:49:43.035Z,43.55
2019-03-27T00:50:42.999Z,43.22
2019-03-27T00:51:43.033Z,43.42
2019-03-27T00:52:43.004Z,44.50
2019-03-27T00:53:42.991Z,45.75
2019-03-27T00:54:42.975Z,48.96
2019-03-27T00:55:42.973Z,47.68
2019-03-27T00:56:42.966Z,44.91
2019-03-27T00:57:42.975Z,44.11
2019-03-27T00:58:42.949Z,45.27
2019-03-27T00:59:42.938Z,45.51
2019-03-27T01:00:42.925Z,50.41
2019-03-27T01:01:42.931Z,49.98
2019-03-27T01:02:42.921Z,44.38
2019-03-27T01:03:42.906Z,43.89
2019-03-27T01:04:42.898Z,45.35
2019-03-27T01:05:42.907Z,47.19
2019-03-27T01:06:42.912Z,48.12
2019-03-27T01:07:42.914Z,47.12
2019-03-27T01:08:42.913Z,46.15
2019-03-27T01:09:42.902Z,47.87
2019-03-27T01:10:42.903Z,53.64
2019-03-27T01:11:42.887Z,48.98
2019-03-27T01:12:42.888Z,49.07
2019-03-27T01:13:42.872Z,48.76
2019-03-27T01:14:42.869Z,49.49
2019-03-27T01:15:42.861Z,51.91
2019-03-27T01:16:42.845Z,48.20
2019-03-27T01:17:42.876Z,48.80
2019-03-27T01:18:42.840Z,48.53
2019-03-27T01:19:42.834Z,46.89
2019-03-27T01:20:42.839Z,46.38
2019-03-27T01:21:42.815Z,45.88
2019-03-27T01:22:42.810Z,47.13
2019-03-27T01:23:42.817Z,49.33
2019-03-27T01:24:42.802Z,48.98
2019-03-27T01:25:42.785Z,49.93
2019-03-27T01:26:42.779Z,49.00
2019-03-27T01:27:42.765Z,47.96
2019-03-27T01:28:42.782Z,49.31
2019-03-27T01:29:42.767Z,49.81
2019-03-27T01:30:42.755Z,53.68
2019-03-27T01:31:42.776Z,46.52
2019-03-27T01:32:42.772Z,46.21
2019-03-27T01:33:42.768Z,51.20
2019-03-27T01:34:42.751Z,50.96
2019-03-27T01:35:42.758Z,49.79
2019-03-27T01:36:42.727Z,51.98
2019-03-27T01:37:42.732Z,51.36
2019-03-27T01:38:42.734Z,48.92
2019-03-27T01:39:42.710Z,50.28
2019-03-27T01:40:42.699Z,49.81
2019-03-27T01:41:42.701Z,52.28
2019-03-27T01:42:42.703Z,51.30
2019-03-27T01:43:42.699Z,50.44
2019-03-27T01:44:42.701Z,48.63
2019-03-27T01:45:52.554Z,54.96
2019-03-27T01:46:44.659Z,49.60
2019-03-27T01:47:42.659Z,48.64
2019-03-27T01:48:42.666Z,48.52
2019-03-27T01:49:42.646Z,48.81
2019-03-27T01:50:42.639Z,50.10
2019-03-27T01:51:42.638Z,50.37
2019-03-27T01:52:42.619Z,47.32
2019-03-27T01:53:42.615Z,47.04
2019-03-27T01:54:42.618Z,46.34
2019-03-27T01:55:42.614Z,47.33
2019-03-27T01:56:42.612Z,50.80
2019-03-27T01:57:42.592Z,45.31
2019-03-27T01:58:42.587Z,45.38
2019-03-27T01:59:42.584Z,43.64
2019-03-27T02:00:42.597Z,45.34
2019-03-27T02:01:42.606Z,43.39
2019-03-27T02:02:42.589Z,44.87
2019-03-27T02:03:42.605Z,44.12
2019-03-27T02:04:42.576Z,45.42
2019-03-27T02:05:42.584Z,45.19
2019-03-27T02:06:42.557Z,46.71
2019-03-27T02:07:42.557Z,45.77
2019-03-27T02:08:42.572Z,42.90
2019-03-27T02:09:42.528Z,42.50
2019-03-27T02:10:42.531Z,42.26
2019-03-27T02:11:42.523Z,44.18
2019-03-27T02:12:42.507Z,44.77
2019-03-27T02:13:42.526Z,45.33
2019-03-27T02:14:42.508Z,51.36
2019-03-27T02:15:42.486Z,48.13
2019-03-27T02:16:42.499Z,45.33
2019-03-27T02:17:42.517Z,49.05
2019-03-27T02:18:42.485Z,45.45
2019-03-27T02:19:42.470Z,44.46
2019-03-27T02:20:42.465Z,44.43
2019-03-27T02:21:42.469Z,43.62
2019-03-27T02:22:42.440Z,44.11
2019-03-27T02:23:42.457Z,43.18
2019-03-27T02:24:42.420Z,43.31
2019-03-27T02:25:42.421Z,43.98
2019-03-27T02:26:42.420Z,44.19
2019-03-27T02:27:42.426Z,44.45
2019-03-27T02:28:42.441Z,44.15
2019-03-27T02:29:42.435Z,44.77
2019-03-27T02:30:42.436Z,45.86
2019-03-27T02:31:42.412Z,45.35
2019-03-27T02:32:42.400Z,45.31
2019-03-27T02:33:42.424Z,49.24
2019-03-27T02:34:42.388Z,44.91
2019-03-27T02:35:42.401Z,44.80
2019-03-27T02:36:42.387Z,44.64
2019-03-27T02:37:42.368Z,43.98
2019-03-27T02:38:42.376Z,44.94
2019-03-27T02:39:42.346Z,45.64
2019-03-27T02:40:42.351Z,45.06
2019-03-27T02:41:42.339Z,43.55
2019-03-27T02:42:42.347Z,44.83
2019-03-27T02:43:42.334Z,45.03
2019-03-27T02:44:42.320Z,47.20
2019-03-27T02:45:42.306Z,46.36
2019-03-27T02:46:42.290Z,44.55
2019-03-27T02:47:42.283Z,46.67
2019-03-27T02:48:42.304Z,49.28
2019-03-27T02:49:42.275Z,49.86
2019-03-27T02:50:42.256Z,45.47
2019-03-27T02:51:42.265Z,47.26
2019-03-27T02:52:42.269Z,47.09
2019-03-27T02:53:48.170Z,46.00
2019-03-27T02:54:42.255Z,45.17
2019-03-27T02:55:42.239Z,45.91
2019-03-27T02:56:42.230Z,46.78
2019-03-27T02:57:42.228Z,48.30
2019-03-27T02:58:42.253Z,45.60
2019-03-27T02:59:42.236Z,46.82
2019-03-27T03:00:42.248Z,51.44
2019-03-27T03:01:42.228Z,47.10
2019-03-27T03:02:42.213Z,48.57
2019-03-27T03:03:42.232Z,46.46
2019-03-27T03:04:42.207Z,48.61
2019-03-27T03:05:42.197Z,45.37
2019-03-27T03:06:42.180Z,48.31
2019-03-27T03:07:42.202Z,46.25
2019-03-27T03:08:42.175Z,51.43
2019-03-27T03:09:42.160Z,49.84
2019-03-27T03:10:45.578Z,49.39
2019-03-27T03:11:43.156Z,47.93
2019-03-27T03:12:43.163Z,53.83
2019-03-27T03:13:42.139Z,51.46
2019-03-27T03:14:42.137Z,50.49
2019-03-27T03:15:42.119Z,48.32
2019-03-27T03:16:43.401Z,49.51
2019-03-27T03:17:43.110Z,48.46
2019-03-27T03:18:42.108Z,50.26
2019-03-27T03:19:42.096Z,48.12
2019-03-27T03:20:42.123Z,49.98
2019-03-27T03:21:42.092Z,48.97
2019-03-27T03:22:42.074Z,49.14
2019-03-27T03:23:42.076Z,48.80
2019-03-27T03:24:42.094Z,47.71
2019-03-27T03:25:42.065Z,46.28
2019-03-27T03:26:42.059Z,46.66
2019-03-27T03:27:42.030Z,47.65
2019-03-27T03:28:42.036Z,48.03
2019-03-27T03:29:42.030Z,48.42
2019-03-27T03:30:42.152Z,50.44
2019-03-27T03:31:42.013Z,49.40
2019-03-27T03:32:42.037Z,51.87
2019-03-27T03:33:42.049Z,52.25
2019-03-27T03:34:42.195Z,50.04
2019-03-27T03:35:41.975Z,47.24
2019-03-27T03:36:41.993Z,47.56
2019-03-27T03:37:41.986Z,48.91
2019-03-27T03:38:41.992Z,50.91
2019-03-27T03:39:41.965Z,49.54
2019-03-27T03:40:41.975Z,53.95
2019-03-27T03:41:41.953Z,52.10
2019-03-27T03:42:42.023Z,50.73
2019-03-27T03:43:41.955Z,50.67
2019-03-27T03:44:41.932Z,51.88
2019-03-27T03:45:41.931Z,50.56
2019-03-27T03:46:58.467Z,53.53
2019-03-27T03:47:43.915Z,55.14
2019-03-27T03:48:41.925Z,52.26
2019-03-27T03:49:41.958Z,50.78
2019-03-27T03:50:41.881Z,49.80
2019-03-27T03:51:41.884Z,52.49
2019-03-27T03:52:45.597Z,53.20
2019-03-27T03:53:42.880Z,51.20
2019-03-27T03:54:41.874Z,52.25
2019-03-27T03:55:41.978Z,52.54
2019-03-27T03:56:41.845Z,51.90
2019-03-27T03:57:41.845Z,50.24
2019-03-27T03:58:41.852Z,49.53
2019-03-27T03:59:42.821Z,52.59
2019-03-27T04:00:41.821Z,53.71
2019-03-27T04:01:41.814Z,51.29
2019-03-27T04:02:41.815Z,51.15
2019-03-27T04:03:41.802Z,50.32
2019-03-27T04:04:41.799Z,49.18
2019-03-27T04:05:41.778Z,48.38
2019-03-27T04:06:41.787Z,50.60
2019-03-27T04:07:41.768Z,50.25
2019-03-27T04:08:41.779Z,51.16
2019-03-27T04:09:41.754Z,50.94
2019-03-27T04:10:41.761Z,50.35
2019-03-27T04:11:41.736Z,50.40
2019-03-27T04:12:41.738Z,51.01
2019-03-27T04:13:41.747Z,52.57
2019-03-27T04:14:41.712Z,51.06
2019-03-27T04:15:41.707Z,50.76
2019-03-27T04:16:41.712Z,50.65
2019-03-27T04:17:41.716Z,51.62
2019-03-27T04:18:41.712Z,51.25
2019-03-27T04:19:41.683Z,51.70
2019-03-27T04:20:41.673Z,51.46
2019-03-27T04:21:41.665Z,53.49
2019-03-27T04:22:41.668Z,52.37
2019-03-27T04:23:41.678Z,52.38
2019-03-27T04:24:41.649Z,54.26
2019-03-27T04:26:07.040Z,51.62
2019-03-27T04:26:43.648Z,51.90
2019-03-27T04:27:41.630Z,52.17
2019-03-27T04:28:41.648Z,54.55
2019-03-27T04:29:41.631Z,53.87
2019-03-27T04:30:41.621Z,53.29
2019-03-27T04:31:41.618Z,56.17
2019-03-27T04:32:41.599Z,51.98
2019-03-27T04:33:41.596Z,55.18
2019-03-27T04:34:41.585Z,53.83
2019-03-27T04:35:41.581Z,56.87
2019-03-27T04:36:41.589Z,55.86
2019-03-27T04:37:41.566Z,57.72
2019-03-27T04:38:41.568Z,53.91
2019-03-27T04:39:42.145Z,54.31
2019-03-27T04:40:41.541Z,58.67
2019-03-27T04:41:41.545Z,55.39
2019-03-27T04:42:41.527Z,54.10
2019-03-27T04:43:41.523Z,53.52
2019-03-27T04:44:41.520Z,58.41
2019-03-27T04:45:41.513Z,55.09
2019-03-27T04:46:41.498Z,53.09
2019-03-27T04:47:41.512Z,55.25
2019-03-27T04:48:42.526Z,52.72
2019-03-27T04:49:41.485Z,53.52
2019-03-27T04:50:41.480Z,52.60
2019-03-27T04:51:41.490Z,53.24
2019-03-27T04:52:41.485Z,54.74
2019-03-27T04:53:41.477Z,57.46
2019-03-27T04:54:41.463Z,53.69
2019-03-27T04:55:41.457Z,55.77
2019-03-27T04:56:41.448Z,54.17
2019-03-27T04:57:41.440Z,53.35
2019-03-27T04:58:41.448Z,53.21
2019-03-27T04:59:41.439Z,55.47
2019-03-27T05:00:41.435Z,57.44
2019-03-27T05:01:41.418Z,54.49
2019-03-27T05:02:41.490Z,52.75
2019-03-27T05:03:41.429Z,54.01
2019-03-27T05:04:41.410Z,59.22
2019-03-27T05:05:41.396Z,55.10
2019-03-27T05:06:41.377Z,55.71
2019-03-27T05:07:41.381Z,58.81
2019-03-27T05:08:41.370Z,59.88
2019-03-27T05:09:41.363Z,55.93
2019-03-27T05:10:41.356Z,55.88
2019-03-27T05:11:41.346Z,55.32
2019-03-27T05:12:41.334Z,55.54
2019-03-27T05:13:41.326Z,54.05
2019-03-27T05:14:41.333Z,54.55
2019-03-27T05:15:41.318Z,56.15
2019-03-27T05:16:41.314Z,55.78
2019-03-27T05:17:46.074Z,56.53
2019-03-27T05:18:43.304Z,58.73
2019-03-27T05:19:41.304Z,54.36
2019-03-27T05:20:41.298Z,56.04
2019-03-27T05:21:41.296Z,56.99
2019-03-27T05:22:41.274Z,56.88
2019-03-27T05:23:41.338Z,57.23
2019-03-27T05:24:41.276Z,58.55
2019-03-27T05:25:41.264Z,58.17
2019-03-27T05:26:41.253Z,57.76
2019-03-27T05:27:41.241Z,55.64
2019-03-27T05:28:41.234Z,56.57
2019-03-27T05:29:41.233Z,57.72
2019-03-27T05:30:41.218Z,56.93
2019-03-27T05:31:41.211Z,54.94
2019-03-27T05:32:41.207Z,54.00
2019-03-27T05:33:41.199Z,53.38
2019-03-27T05:34:41.201Z,53.42
2019-03-27T05:35:41.188Z,53.89
2019-03-27T05:36:41.198Z,57.73
2019-03-27T05:37:41.163Z,52.15
2019-03-27T05:38:41.149Z,51.88
2019-03-27T05:39:41.170Z,51.81
2019-03-27T05:40:41.132Z,50.55
2019-03-27T05:41:41.129Z,48.94
2019-03-27T05:42:41.121Z,52.64
2019-03-27T05:43:41.117Z,51.02
2019-03-27T05:44:41.117Z,50.26
2019-03-27T05:45:41.103Z,50.82
2019-03-27T05:46:41.089Z,51.26
2019-03-27T05:47:41.089Z,51.47
2019-03-27T05:48:41.077Z,52.11
2019-03-27T05:49:41.075Z,50.98
2019-03-27T05:50:41.061Z,49.10
2019-03-27T05:51:41.047Z,48.76
2019-03-27T05:52:41.045Z,48.77
2019-03-27T05:53:41.036Z,49.10
2019-03-27T05:54:41.038Z,48.80
2019-03-27T05:55:41.022Z,47.33
2019-03-27T05:56:41.014Z,47.76
2019-03-27T05:57:41.003Z,48.41
2019-03-27T05:58:41.000Z,48.23
2019-03-27T05:59:41.004Z,46.85
2019-03-27T06:00:40.990Z,47.43
2019-03-27T06:01:40.986Z,48.05
2019-03-27T06:02:40.972Z,48.55
2019-03-27T06:03:40.962Z,46.91
2019-03-27T06:04:40.965Z,47.81
2019-03-27T06:05:40.943Z,48.12
2019-03-27T06:06:40.941Z,47.98
2019-03-27T06:07:40.936Z,46.91
2019-03-27T06:08:40.921Z,46.86
2019-03-27T06:09:40.930Z,46.74
2019-03-27T06:10:40.914Z,47.35
2019-03-27T06:11:40.907Z,46.12
2019-03-27T06:12:40.902Z,46.02
2019-03-27T06:13:40.886Z,46.26
2019-03-27T06:14:40.890Z,47.79
2019-03-27T06:15:40.873Z,47.83
2019-03-27T06:16:40.873Z,47.85
2019-03-27T06:17:40.877Z,47.21
2019-03-27T06:18:40.863Z,47.60
2019-03-27T06:19:40.871Z,48.28
2019-03-27T06:20:40.858Z,47.62
2019-03-27T06:21:40.846Z,47.89
2019-03-27T06:22:40.840Z,48.42
2019-03-27T06:23:40.834Z,50.77
2019-03-27T06:24:40.834Z,50.92
2019-03-27T06:25:40.842Z,47.89
2019-03-27T06:26:40.827Z,46.43
2019-03-27T06:27:40.830Z,47.03
2019-03-27T06:28:40.819Z,48.04
2019-03-27T06:29:40.828Z,46.97
2019-03-27T06:30:40.812Z,46.29
2019-03-27T06:31:40.801Z,45.77
2019-03-27T06:32:40.789Z,46.71
2019-03-27T06:33:40.782Z,50.72
2019-03-27T06:34:40.787Z,49.46
2019-03-27T06:35:40.770Z,48.01
2019-03-27T06:36:40.756Z,51.51
2019-03-27T06:37:40.751Z,50.95
2019-03-27T06:38:40.771Z,52.91
2019-03-27T06:39:40.756Z,47.80
2019-03-27T06:40:40.751Z,47.51
2019-03-27T06:41:40.739Z,47.67
2019-03-27T06:42:40.735Z,46.44
2019-03-27T06:43:40.728Z,47.08
2019-03-27T06:44:40.731Z,46.18
2019-03-27T06:45:40.708Z,45.25
2019-03-27T06:46:40.706Z,45.74
2019-03-27T06:47:40.699Z,47.09
2019-03-27T06:48:40.719Z,45.24
2019-03-27T06:49:40.709Z,45.68
2019-03-27T06:50:40.692Z,46.05
2019-03-27T06:51:40.772Z,49.19
2019-03-27T06:52:40.686Z,50.73
2019-03-27T06:53:40.668Z,48.76
2019-03-27T06:54:40.678Z,47.11
2019-03-27T06:55:40.657Z,45.74
2019-03-27T06:56:40.650Z,49.64
2019-03-27T06:57:40.646Z,46.29
2019-03-27T06:58:53.617Z,47.18
2019-03-27T06:59:42.633Z,45.56
2019-03-27T07:00:40.639Z,45.83
2019-03-27T07:01:40.626Z,48.85
2019-03-27T07:02:40.620Z,46.72
2019-03-27T07:03:40.614Z,44.80
2019-03-27T07:04:40.615Z,45.17
2019-03-27T07:05:40.596Z,46.13
2019-03-27T07:06:40.593Z,44.89
2019-03-27T07:07:40.586Z,44.35
2019-03-27T07:08:40.575Z,53.79
2019-03-27T07:09:42.510Z,53.23
2019-03-27T07:10:41.562Z,46.29
2019-03-27T07:11:40.559Z,49.28
2019-03-27T07:12:40.544Z,47.11
2019-03-27T07:13:40.539Z,45.61
2019-03-27T07:14:40.542Z,46.49
2019-03-27T07:15:40.551Z,46.93
2019-03-27T07:16:40.544Z,44.46
2019-03-27T07:17:40.547Z,43.40
2019-03-27T07:18:40.740Z,42.80
2019-03-27T07:19:41.538Z,44.80
2019-03-27T07:20:41.200Z,45.75
2019-03-27T07:21:41.499Z,44.26
2019-03-27T07:22:40.492Z,47.05
2019-03-27T07:23:40.492Z,50.06
2019-03-27T07:24:40.489Z,46.00
2019-03-27T07:25:40.471Z,45.65
2019-03-27T07:26:40.474Z,43.71
2019-03-27T07:27:40.460Z,45.10
2019-03-27T07:28:40.454Z,44.16
2019-03-27T07:29:40.462Z,44.29
2019-03-27T07:30:40.452Z,44.98
2019-03-27T07:31:40.440Z,46.93
2019-03-27T07:32:40.443Z,45.34
2019-03-27T07:33:40.431Z,45.59
2019-03-27T07:34:40.432Z,45.82
2019-03-27T07:35:40.410Z,46.55
2019-03-27T07:36:40.407Z,45.83
2019-03-27T07:37:40.395Z,45.22
2019-03-27T07:38:40.383Z,44.95
2019-03-27T07:39:40.392Z,44.97
2019-03-27T07:40:40.378Z,45.75
2019-03-27T07:41:40.373Z,44.23
2019-03-27T07:42:40.360Z,46.57
2019-03-27T07:43:40.351Z,46.80
2019-03-27T07:44:40.361Z,46.44
2019-03-27T07:45:40.333Z,43.98
2019-03-27T07:46:40.328Z,44.53
2019-03-27T07:47:40.326Z,44.40
2019-03-27T07:48:52.874Z,42.93
2019-03-27T07:49:42.315Z,42.41
2019-03-27T07:50:40.320Z,42.83
2019-03-27T07:51:40.316Z,45.56
2019-03-27T07:52:40.303Z,46.38
2019-03-27T07:53:40.304Z,48.44
2019-03-27T07:54:40.299Z,45.73
2019-03-27T07:55:40.291Z,47.67
2019-03-27T07:56:40.346Z,49.45
2019-03-27T07:57:40.288Z,45.46
2019-03-27T07:58:40.279Z,45.31
2019-03-27T07:59:41.134Z,44.00
2019-03-27T08:00:40.265Z,43.14
2019-03-27T08:01:40.253Z,42.33
2019-03-27T08:02:40.249Z,42.05
2019-03-27T08:03:40.246Z,42.19
2019-03-27T08:04:40.265Z,43.26
2019-03-27T08:05:40.252Z,44.63
2019-03-27T08:06:40.243Z,42.11
2019-03-27T08:07:40.239Z,42.02
2019-03-27T08:08:40.233Z,42.91
2019-03-27T08:09:40.240Z,47.61
2019-03-27T08:10:40.240Z,43.78
2019-03-27T08:11:40.424Z,45.97
2019-03-27T08:12:40.240Z,44.98
2019-03-27T08:13:40.228Z,42.83
2019-03-27T08:14:40.231Z,47.83
2019-03-27T08:15:40.960Z,43.91
2019-03-27T08:16:41.207Z,41.33
2019-03-27T08:17:40.200Z,42.32
2019-03-27T08:18:40.189Z,41.88
2019-03-27T08:19:40.201Z,44.35
2019-03-27T08:20:40.177Z,43.01
2019-03-27T08:21:40.191Z,44.38
2019-03-27T08:22:40.181Z,46.07
2019-03-27T08:23:40.180Z,44.28
2019-03-27T08:24:40.180Z,43.24
2019-03-27T08:25:40.161Z,41.88
2019-03-27T08:26:40.163Z,42.28
2019-03-27T08:27:40.150Z,44.06
2019-03-27T08:28:40.140Z,42.79
2019-03-27T08:29:40.148Z,43.98
2019-03-27T08:30:40.130Z,43.49
2019-03-27T08:31:40.126Z,42.04
2019-03-27T08:32:40.123Z,42.62
2019-03-27T08:33:40.109Z,43.43
2019-03-27T08:34:40.120Z,41.50
2019-03-27T08:35:40.100Z,43.69
2019-03-27T08:36:40.084Z,43.53
2019-03-27T08:37:40.089Z,43.51
2019-03-27T08:38:40.087Z,44.38
2019-03-27T08:39:40.106Z,43.66
2019-03-27T08:40:40.069Z,42.75
2019-03-27T08:41:40.063Z,43.90
2019-03-27T08:42:40.055Z,48.55
2019-03-27T08:43:40.038Z,46.33
2019-03-27T08:44:40.035Z,43.87
2019-03-27T08:45:40.035Z,42.07
2019-03-27T08:46:40.025Z,43.67
2019-03-27T08:47:40.043Z,44.23
2019-03-27T08:48:40.009Z,43.36
2019-03-27T08:49:39.997Z,42.58
2019-03-27T08:50:40.006Z,43.24
2019-03-27T08:51:39.982Z,43.53
2019-03-27T08:52:39.969Z,42.67
2019-03-27T08:53:39.965Z,43.97
2019-03-27T08:54:39.957Z,44.46
2019-03-27T08:55:39.961Z,45.07
2019-03-27T08:56:39.945Z,45.16
2019-03-27T08:57:39.940Z,42.91
2019-03-27T08:58:39.925Z,42.21
2019-03-27T08:59:39.943Z,41.63
2019-03-27T09:00:39.949Z,42.45
2019-03-27T09:01:39.927Z,42.58
2019-03-27T09:02:39.939Z,43.25
2019-03-27T09:03:39.936Z,43.31
2019-03-27T09:04:39.926Z,44.39
2019-03-27T09:05:39.938Z,44.58
2019-03-27T09:06:39.910Z,45.17
2019-03-27T09:07:39.899Z,46.59
2019-03-27T09:08:39.900Z,51.81
2019-03-27T09:09:39.899Z,47.37
2019-03-27T09:10:39.896Z,45.52
2019-03-27T09:11:39.883Z,43.67
2019-03-27T09:12:39.879Z,43.53
2019-03-27T09:13:39.872Z,44.74
2019-03-27T09:14:39.859Z,45.83
2019-03-27T09:15:39.873Z,44.81
2019-03-27T09:16:39.850Z,44.78
2019-03-27T09:17:39.841Z,44.96
2019-03-27T09:18:39.833Z,46.46
2019-03-27T09:19:39.826Z,47.27
2019-03-27T09:20:39.835Z,45.68
2019-03-27T09:21:39.814Z,46.05
2019-03-27T09:22:39.800Z,46.17
2019-03-27T09:23:39.798Z,45.52
2019-03-27T09:24:39.785Z,45.24
2019-03-27T09:25:39.795Z,45.57
2019-03-27T09:26:39.772Z,45.29
2019-03-27T09:27:39.776Z,45.65
2019-03-27T09:28:39.772Z,46.38
2019-03-27T09:29:39.748Z,45.91
2019-03-27T09:30:39.757Z,45.40
2019-03-27T09:31:45.125Z,45.23
2019-03-27T09:32:41.758Z,43.69
2019-03-27T09:33:39.744Z,44.23
2019-03-27T09:34:39.734Z,44.45
2019-03-27T09:35:39.749Z,46.13
2019-03-27T09:36:39.719Z,49.64
2019-03-27T09:37:39.706Z,48.03
2019-03-27T09:38:40.703Z,44.00
2019-03-27T09:39:39.696Z,43.77
2019-03-27T09:40:39.695Z,45.04
2019-03-27T09:41:39.683Z,45.48
2019-03-27T09:42:39.684Z,44.77
2019-03-27T09:43:39.667Z,44.53
2019-03-27T09:44:39.668Z,46.78
2019-03-27T09:45:39.667Z,45.77
2019-03-27T09:46:39.660Z,45.44
2019-03-27T09:47:39.652Z,47.14
2019-03-27T09:48:39.653Z,46.23
2019-03-27T09:49:49.615Z,43.86
2019-03-27T09:50:41.634Z,43.91
2019-03-27T09:51:39.620Z,43.99
2019-03-27T09:52:39.606Z,45.36
2019-03-27T09:53:39.602Z,43.86
2019-03-27T09:54:39.599Z,43.86
2019-03-27T09:55:39.623Z,44.86
2019-03-27T09:56:39.608Z,45.07
2019-03-27T09:57:39.596Z,45.20
2019-03-27T09:58:39.594Z,45.18
2019-03-27T09:59:39.578Z,46.54
2019-03-27T10:00:39.581Z,44.01
2019-03-27T10:01:39.566Z,43.97
2019-03-27T10:02:39.551Z,45.36
2019-03-27T10:03:39.546Z,45.34
2019-03-27T10:04:39.539Z,44.99
2019-03-27T10:05:39.546Z,44.98
2019-03-27T10:06:39.532Z,43.85
2019-03-27T10:07:39.536Z,42.17
2019-03-27T10:08:39.606Z,42.64
2019-03-27T10:09:39.524Z,42.91
2019-03-27T10:10:40.539Z,43.06
2019-03-27T10:11:39.511Z,43.90
2019-03-27T10:12:39.522Z,43.94
2019-03-27T10:13:39.518Z,43.71
2019-03-27T10:14:39.514Z,43.63
2019-03-27T10:15:39.511Z,43.47
2019-03-27T10:16:39.499Z,44.91
2019-03-27T10:17:39.491Z,44.28
2019-03-27T10:18:39.485Z,45.44
2019-03-27T10:19:39.538Z,44.82
2019-03-27T10:20:39.475Z,42.86
2019-03-27T10:21:39.460Z,42.68
2019-03-27T10:22:39.451Z,43.12
2019-03-27T10:23:39.445Z,43.53
2019-03-27T10:24:39.436Z,43.13
2019-03-27T10:25:39.440Z,45.72
2019-03-27T10:26:42.629Z,45.27
2019-03-27T10:27:40.408Z,44.91
2019-03-27T10:28:39.406Z,44.79
2019-03-27T10:29:39.409Z,44.55
2019-03-27T10:30:39.406Z,44.55
2019-03-27T10:31:39.410Z,47.73
2019-03-27T10:32:39.399Z,48.86
2019-03-27T10:33:39.391Z,45.49
2019-03-27T10:34:39.407Z,44.40
2019-03-27T10:35:39.400Z,43.30
2019-03-27T10:36:39.388Z,44.02
2019-03-27T10:37:39.404Z,44.33
2019-03-27T10:38:41.726Z,43.97
2019-03-27T10:39:40.380Z,44.89
2019-03-27T10:40:47.683Z,44.37
2019-03-27T10:41:39.373Z,44.42
2019-03-27T10:42:39.359Z,43.37
2019-03-27T10:43:39.352Z,43.33
2019-03-27T10:44:39.358Z,44.93
2019-03-27T10:45:39.349Z,45.51
2019-03-27T10:46:39.339Z,46.70
2019-03-27T10:47:39.323Z,47.91
2019-03-27T10:48:51.787Z,46.25
2019-03-27T10:49:41.308Z,45.39
2019-03-27T10:50:39.314Z,46.57
2019-03-27T10:51:39.295Z,53.03
2019-03-27T10:52:39.287Z,46.98
2019-03-27T10:53:39.279Z,45.70
2019-03-27T10:54:39.266Z,45.70
2019-03-27T10:55:39.268Z,46.22
2019-03-27T10:56:39.251Z,46.57
2019-03-27T10:57:39.243Z,46.80
2019-03-27T10:58:39.229Z,46.87
2019-03-27T10:59:39.226Z,47.10
2019-03-27T11:00:39.233Z,51.61
2019-03-27T11:01:39.219Z,48.53
2019-03-27T11:02:39.259Z,46.09
2019-03-27T11:03:39.210Z,45.69
2019-03-27T11:04:39.201Z,46.49
2019-03-27T11:05:39.202Z,46.23
2019-03-27T11:06:39.181Z,46.07
2019-03-27T11:07:39.178Z,46.27
2019-03-27T11:08:39.168Z,47.15
2019-03-27T11:09:39.165Z,46.14
2019-03-27T11:10:39.167Z,44.03
2019-03-27T11:11:39.142Z,44.23
2019-03-27T11:12:39.142Z,44.97
2019-03-27T11:13:40.174Z,46.99
2019-03-27T11:14:39.116Z,47.47
2019-03-27T11:15:39.130Z,46.89
2019-03-27T11:16:39.172Z,47.41
2019-03-27T11:17:39.100Z,53.58
2019-03-27T11:18:39.093Z,55.50
2019-03-27T11:19:39.086Z,50.58
2019-03-27T11:20:39.092Z,48.94
2019-03-27T11:21:39.092Z,48.65
2019-03-27T11:22:39.092Z,49.31
2019-03-27T11:23:39.082Z,47.06
2019-03-27T11:24:39.069Z,50.13
2019-03-27T11:25:39.074Z,48.59
2019-03-27T11:26:39.057Z,46.86
2019-03-27T11:27:39.058Z,46.45
2019-03-27T11:28:39.037Z,45.80
2019-03-27T11:29:39.032Z,46.49
2019-03-27T11:30:39.040Z,46.02
2019-03-27T11:31:39.023Z,46.06
2019-03-27T11:32:39.014Z,45.59
2019-03-27T11:33:39.012Z,47.17
2019-03-27T11:34:38.994Z,47.67
2019-03-27T11:35:39.005Z,46.39
2019-03-27T11:36:38.989Z,46.55
2019-03-27T11:37:38.974Z,45.29
2019-03-27T11:38:38.988Z,44.97
2019-03-27T11:39:38.971Z,46.62
2019-03-27T11:40:38.980Z,44.89
2019-03-27T11:41:38.958Z,44.97
2019-03-27T11:42:38.953Z,46.82
2019-03-27T11:43:38.945Z,46.79
2019-03-27T11:44:38.957Z,44.11
2019-03-27T11:45:38.974Z,46.03
2019-03-27T11:46:38.944Z,45.70
2019-03-27T11:47:38.924Z,45.50
2019-03-27T11:48:39.675Z,45.47
2019-03-27T11:49:38.918Z,47.26
2019-03-27T11:50:45.194Z,50.96
2019-03-27T11:51:40.908Z,48.79
2019-03-27T11:52:38.896Z,44.53
2019-03-27T11:53:38.880Z,44.19
2019-03-27T11:54:38.882Z,45.33
2019-03-27T11:55:38.874Z,44.68
2019-03-27T11:56:38.898Z,47.26
2019-03-27T11:57:38.900Z,45.71
2019-03-27T11:58:38.853Z,44.48
2019-03-27T11:59:38.843Z,45.45
2019-03-27T12:00:53.424Z,44.54
2019-03-27T12:01:43.753Z,43.62
2019-03-27T12:02:39.837Z,43.25
2019-03-27T12:03:38.832Z,42.18
2019-03-27T12:04:38.824Z,44.25
2019-03-27T12:05:38.810Z,44.51
2019-03-27T12:06:38.818Z,45.68
2019-03-27T12:07:38.796Z,46.22
2019-03-27T12:08:38.796Z,46.21
2019-03-27T12:09:38.787Z,45.90
2019-03-27T12:10:38.776Z,44.74
2019-03-27T12:11:38.783Z,45.95
2019-03-27T12:12:38.760Z,48.95
2019-03-27T12:13:38.756Z,45.18
2019-03-27T12:14:38.768Z,44.49
2019-03-27T12:15:38.743Z,44.41
2019-03-27T12:16:38.740Z,44.55
2019-03-27T12:17:38.719Z,45.86
2019-03-27T12:18:38.721Z,47.32
2019-03-27T12:19:38.715Z,46.18
2019-03-27T12:20:38.708Z,48.36
2019-03-27T12:21:38.706Z,47.36
2019-03-27T12:22:38.691Z,45.23
2019-03-27T12:23:38.686Z,44.23
2019-03-27T12:24:38.674Z,46.06
2019-03-27T12:25:38.664Z,44.34
2019-03-27T12:26:38.664Z,45.36
2019-03-27T12:27:38.654Z,46.63
2019-03-27T12:28:39.639Z,46.91
2019-03-27T12:29:38.637Z,48.68
2019-03-27T12:30:38.627Z,47.57
2019-03-27T12:31:38.631Z,46.04
2019-03-27T12:32:38.625Z,45.86
2019-03-27T12:33:38.612Z,45.00
2019-03-27T12:34:38.602Z,45.29
2019-03-27T12:35:38.589Z,43.17
2019-03-27T12:36:38.606Z,42.82
2019-03-27T12:37:38.581Z,43.84
2019-03-27T12:38:38.576Z,44.53
2019-03-27T12:39:40.818Z,46.98
2019-03-27T12:40:39.562Z,45.15
2019-03-27T12:41:38.564Z,44.58
2019-03-27T12:42:38.547Z,44.68
2019-03-27T12:43:38.541Z,45.22
2019-03-27T12:44:38.637Z,49.11
2019-03-27T12:45:38.517Z,45.64
2019-03-27T12:46:38.531Z,44.46
2019-03-27T12:47:38.507Z,44.57
2019-03-27T12:48:38.505Z,44.36
2019-03-27T12:49:38.490Z,46.23
2019-03-27T12:50:38.485Z,45.83
2019-03-27T12:51:38.497Z,46.03
2019-03-27T12:52:38.496Z,44.91